JST328 YPPH-YPDN
Flight info
| Callsign | JST328 |
|---|---|
| Flight time | 3h 24m |
| Altitude | 39000 |
| Route | PH Y31 MANIG Y36 BIDAP T63 ARG J72 DN |
| Aircraft | A20N/M-SDE2E3FGHIRWXY/LB1 |
Departure
| Time | 2026-04-30 02:38 |
|---|---|
| Airport | Perth International Airport (YPPH) |
Arrival
| Time | 2026-04-30 06:02 |
|---|---|
| Airport | Darwin International Airport / RAAF Darwin (YPDN) |
| Time | Latitude | Longitude | Altitude | Speed | Heading |
|---|---|---|---|---|---|
| 2026-04-30 02:09 | -31.94150 | 115.97010 | 53 ft | 0 kts | 8° |
| 2026-04-30 02:28 | -31.94151 | 115.97010 | 57 ft | 2 kts | 8° |
| 2026-04-30 02:28 | -31.94168 | 115.97007 | 55 ft | 3 kts | 8° |
| 2026-04-30 02:28 | -31.94186 | 115.97006 | 56 ft | 3 kts | 351° |
| 2026-04-30 02:29 | -31.94204 | 115.97012 | 57 ft | 3 kts | 328° |
| 2026-04-30 02:29 | -31.94218 | 115.97026 | 54 ft | 3 kts | 305° |
| 2026-04-30 02:29 | -31.94225 | 115.97039 | 55 ft | 0 kts | 289° |
| 2026-04-30 02:32 | -31.94222 | 115.97028 | 55 ft | 4 kts | 289° |
| 2026-04-30 02:32 | -31.94214 | 115.96999 | 60 ft | 7 kts | 285° |
| 2026-04-30 02:32 | -31.94198 | 115.96917 | 55 ft | 13 kts | 282° |
| 2026-04-30 02:33 | -31.94169 | 115.96832 | 58 ft | 10 kts | 322° |
| 2026-04-30 02:33 | -31.94096 | 115.96837 | 57 ft | 12 kts | 12° |
| 2026-04-30 02:33 | -31.93998 | 115.96866 | 58 ft | 17 kts | 14° |
| 2026-04-30 02:33 | -31.93861 | 115.96907 | 55 ft | 23 kts | 14° |
| 2026-04-30 02:34 | -31.93697 | 115.96954 | 55 ft | 24 kts | 14° |
| 2026-04-30 02:34 | -31.93550 | 115.96996 | 54 ft | 23 kts | 13° |
| 2026-04-30 02:34 | -31.93389 | 115.97042 | 54 ft | 24 kts | 13° |
| 2026-04-30 02:34 | -31.93155 | 115.97112 | 51 ft | 27 kts | 14° |
| 2026-04-30 02:35 | -31.93045 | 115.97144 | 55 ft | 13 kts | 14° |
| 2026-04-30 02:35 | -31.92959 | 115.97149 | 52 ft | 13 kts | 328° |
| 2026-04-30 02:35 | -31.92932 | 115.97094 | 52 ft | 0 kts | 283° |
| 2026-04-30 02:36 | -31.92930 | 115.97081 | 55 ft | 5 kts | 283° |
| 2026-04-30 02:36 | -31.92915 | 115.97002 | 53 ft | 15 kts | 283° |
| 2026-04-30 02:36 | -31.92894 | 115.96869 | 52 ft | 17 kts | 264° |
| 2026-04-30 02:37 | -31.92993 | 115.96804 | 55 ft | 20 kts | 196° |
| 2026-04-30 02:37 | -31.93382 | 115.96696 | 49 ft | 97 kts | 193° |
| 2026-04-30 02:37 | -31.94254 | 115.96435 | 60 ft | 159 kts | 194° |
| 2026-04-30 02:37 | -31.95495 | 115.96089 | 149 ft | 202 kts | 194° |
| 2026-04-30 02:38 | -31.96949 | 115.95655 | 466 ft | 234 kts | 195° |
| 2026-04-30 02:38 | -31.98601 | 115.95155 | 1157 ft | 247 kts | 195° |
| 2026-04-30 02:38 | -32.00298 | 115.94790 | 2058 ft | 254 kts | 180° |
| 2026-04-30 02:38 | -32.02020 | 115.95271 | 2886 ft | 260 kts | 152° |
| 2026-04-30 02:39 | -32.03379 | 115.96670 | 3774 ft | 263 kts | 124° |
| 2026-04-30 02:39 | -32.04121 | 115.98655 | 4500 ft | 269 kts | 107° |
| 2026-04-30 02:39 | -32.04594 | 116.00757 | 4992 ft | 271 kts | 103° |
| 2026-04-30 02:39 | -32.05023 | 116.02941 | 5879 ft | 273 kts | 103° |
| 2026-04-30 02:40 | -32.05464 | 116.05125 | 6736 ft | 276 kts | 104° |
| 2026-04-30 02:40 | -32.05940 | 116.07340 | 7584 ft | 280 kts | 105° |
| 2026-04-30 02:40 | -32.06445 | 116.09571 | 8409 ft | 284 kts | 105° |
| 2026-04-30 02:40 | -32.06970 | 116.11827 | 9238 ft | 287 kts | 106° |
| 2026-04-30 02:41 | -32.07507 | 116.14103 | 10029 ft | 290 kts | 106° |
| 2026-04-30 02:41 | -32.08068 | 116.16469 | 10460 ft | 310 kts | 106° |
| 2026-04-30 02:41 | -32.08519 | 116.19040 | 10680 ft | 332 kts | 92° |
| 2026-04-30 02:41 | -32.08177 | 116.21777 | 11170 ft | 342 kts | 70° |
| 2026-04-30 02:42 | -32.06989 | 116.24203 | 11902 ft | 345 kts | 50° |
| 2026-04-30 02:42 | -32.05359 | 116.26302 | 12614 ft | 349 kts | 46° |
| 2026-04-30 02:42 | -32.03646 | 116.28345 | 13321 ft | 352 kts | 45° |
| 2026-04-30 02:42 | -32.01909 | 116.30402 | 13975 ft | 356 kts | 45° |
| 2026-04-30 02:43 | -32.00167 | 116.32498 | 14665 ft | 359 kts | 46° |
| 2026-04-30 02:43 | -31.98426 | 116.34629 | 15294 ft | 363 kts | 46° |
| 2026-04-30 02:43 | -31.96676 | 116.36798 | 15914 ft | 367 kts | 47° |
| 2026-04-30 02:43 | -31.94918 | 116.38989 | 16537 ft | 370 kts | 47° |
| 2026-04-30 02:44 | -31.93145 | 116.41203 | 17133 ft | 373 kts | 47° |
| 2026-04-30 02:44 | -31.91358 | 116.43435 | 17707 ft | 377 kts | 47° |
| 2026-04-30 02:44 | -31.89550 | 116.45691 | 18261 ft | 380 kts | 47° |
| 2026-04-30 02:44 | -31.87728 | 116.47963 | 18814 ft | 383 kts | 47° |
| 2026-04-30 02:45 | -31.85916 | 116.50219 | 19355 ft | 386 kts | 47° |
| 2026-04-30 02:45 | -31.84063 | 116.52524 | 19885 ft | 389 kts | 47° |
| 2026-04-30 02:45 | -31.82192 | 116.54849 | 20397 ft | 392 kts | 47° |
| 2026-04-30 02:45 | -31.80307 | 116.57190 | 20894 ft | 396 kts | 47° |
| 2026-04-30 02:46 | -31.78407 | 116.59547 | 21396 ft | 398 kts | 47° |
| 2026-04-30 02:46 | -31.76495 | 116.61917 | 21887 ft | 401 kts | 47° |
| 2026-04-30 02:46 | -31.74564 | 116.64309 | 22357 ft | 404 kts | 47° |
| 2026-04-30 02:46 | -31.72625 | 116.66709 | 22827 ft | 406 kts | 47° |
| 2026-04-30 02:47 | -31.70672 | 116.69125 | 23252 ft | 410 kts | 47° |
| 2026-04-30 02:47 | -31.68702 | 116.71560 | 23696 ft | 412 kts | 47° |
| 2026-04-30 02:47 | -31.66725 | 116.74003 | 24139 ft | 415 kts | 47° |
| 2026-04-30 02:47 | -31.64725 | 116.76471 | 24546 ft | 418 kts | 47° |
| 2026-04-30 02:48 | -31.62715 | 116.78951 | 24949 ft | 420 kts | 47° |
| 2026-04-30 02:48 | -31.60694 | 116.81442 | 25334 ft | 423 kts | 47° |
| 2026-04-30 02:48 | -31.58658 | 116.83949 | 25703 ft | 426 kts | 47° |
| 2026-04-30 02:48 | -31.56490 | 116.86326 | 26066 ft | 428 kts | 39° |
| 2026-04-30 02:49 | -31.54011 | 116.88275 | 26414 ft | 430 kts | 29° |
| 2026-04-30 02:49 | -31.51281 | 116.89707 | 26755 ft | 432 kts | 20° |
| 2026-04-30 02:49 | -31.48427 | 116.90841 | 27103 ft | 434 kts | 19° |
| 2026-04-30 02:49 | -31.45556 | 116.91966 | 27429 ft | 436 kts | 19° |
| 2026-04-30 02:50 | -31.42675 | 116.93113 | 27728 ft | 438 kts | 19° |
| 2026-04-30 02:50 | -31.39823 | 116.94268 | 28033 ft | 441 kts | 20° |
| 2026-04-30 02:50 | -31.36925 | 116.95454 | 28328 ft | 442 kts | 20° |
| 2026-04-30 02:50 | -31.34012 | 116.96655 | 28606 ft | 445 kts | 20° |
| 2026-04-30 02:51 | -31.31089 | 116.97859 | 28883 ft | 446 kts | 20° |
| 2026-04-30 02:51 | -31.28144 | 116.99071 | 29139 ft | 448 kts | 20° |
| 2026-04-30 02:51 | -31.25198 | 117.00282 | 29395 ft | 450 kts | 20° |
| 2026-04-30 02:51 | -31.22232 | 117.01500 | 29648 ft | 452 kts | 20° |
| 2026-04-30 02:52 | -31.19259 | 117.02721 | 29891 ft | 454 kts | 20° |
| 2026-04-30 02:52 | -31.16279 | 117.03944 | 30135 ft | 456 kts | 20° |
| 2026-04-30 02:52 | -31.13276 | 117.05175 | 30379 ft | 457 kts | 20° |
| 2026-04-30 02:52 | -31.10261 | 117.06410 | 30616 ft | 459 kts | 20° |
| 2026-04-30 02:53 | -31.07242 | 117.07645 | 30863 ft | 461 kts | 20° |
| 2026-04-30 02:53 | -31.04213 | 117.08884 | 31109 ft | 462 kts | 20° |
| 2026-04-30 02:53 | -31.01179 | 117.10122 | 31399 ft | 462 kts | 20° |
| 2026-04-30 02:53 | -30.98141 | 117.11362 | 31713 ft | 461 kts | 20° |
| 2026-04-30 02:54 | -30.95116 | 117.12596 | 32008 ft | 461 kts | 20° |
| 2026-04-30 02:54 | -30.92092 | 117.13827 | 32288 ft | 461 kts | 20° |
| 2026-04-30 02:54 | -30.89121 | 117.15086 | 32578 ft | 460 kts | 24° |
| 2026-04-30 02:54 | -30.86272 | 117.16766 | 32853 ft | 459 kts | 32° |
| 2026-04-30 02:55 | -30.83669 | 117.18917 | 33083 ft | 459 kts | 41° |
| 2026-04-30 02:55 | -30.81361 | 117.21490 | 33307 ft | 459 kts | 48° |
| 2026-04-30 02:55 | -30.79196 | 117.24226 | 33540 ft | 459 kts | 48° |
| 2026-04-30 02:55 | -30.77034 | 117.26964 | 33809 ft | 458 kts | 48° |
| 2026-04-30 02:56 | -30.74868 | 117.29677 | 34045 ft | 457 kts | 47° |
| 2026-04-30 02:56 | -30.72690 | 117.32368 | 34274 ft | 457 kts | 47° |
| 2026-04-30 02:56 | -30.70505 | 117.35044 | 34495 ft | 456 kts | 47° |
| 2026-04-30 02:56 | -30.68312 | 117.37716 | 34710 ft | 456 kts | 47° |
| 2026-04-30 02:57 | -30.66152 | 117.40341 | 34911 ft | 455 kts | 47° |
| 2026-04-30 02:57 | -30.63963 | 117.42999 | 35102 ft | 455 kts | 46° |
| 2026-04-30 02:57 | -30.61775 | 117.45655 | 35293 ft | 455 kts | 46° |
| 2026-04-30 02:57 | -30.59591 | 117.48307 | 35473 ft | 455 kts | 46° |
| 2026-04-30 02:58 | -30.57405 | 117.50959 | 35653 ft | 454 kts | 46° |
| 2026-04-30 02:58 | -30.55223 | 117.53607 | 35832 ft | 454 kts | 46° |
| 2026-04-30 02:58 | -30.53039 | 117.56255 | 36003 ft | 453 kts | 46° |
| 2026-04-30 02:58 | -30.50857 | 117.58899 | 36169 ft | 453 kts | 46° |
| 2026-04-30 02:59 | -30.48680 | 117.61536 | 36333 ft | 453 kts | 46° |
| 2026-04-30 02:59 | -30.46502 | 117.64174 | 36450 ft | 453 kts | 46° |
| 2026-04-30 02:59 | -30.44323 | 117.66810 | 36576 ft | 453 kts | 46° |
| 2026-04-30 02:59 | -30.42144 | 117.69445 | 36703 ft | 453 kts | 46° |
| 2026-04-30 03:00 | -30.39965 | 117.72078 | 36819 ft | 453 kts | 46° |
| 2026-04-30 03:00 | -30.37784 | 117.74713 | 36932 ft | 453 kts | 46° |
| 2026-04-30 03:00 | -30.35599 | 117.77352 | 37053 ft | 453 kts | 46° |
| 2026-04-30 03:00 | -30.33416 | 117.79985 | 37166 ft | 453 kts | 46° |
| 2026-04-30 03:01 | -30.31233 | 117.82617 | 37266 ft | 453 kts | 46° |
| 2026-04-30 03:01 | -30.29050 | 117.85248 | 37376 ft | 453 kts | 46° |
| 2026-04-30 03:01 | -30.26866 | 117.87878 | 37479 ft | 453 kts | 46° |
| 2026-04-30 03:02 | -30.22498 | 117.93133 | 37662 ft | 453 kts | 46° |
| 2026-04-30 03:02 | -30.18127 | 117.98386 | 37843 ft | 453 kts | 46° |
| 2026-04-30 03:03 | -30.13757 | 118.03632 | 38011 ft | 453 kts | 45° |
| 2026-04-30 03:03 | -30.09381 | 118.08877 | 38161 ft | 453 kts | 45° |
| 2026-04-30 03:03 | -30.07194 | 118.11496 | 38237 ft | 453 kts | 45° |
| 2026-04-30 03:04 | -30.02849 | 118.16695 | 38366 ft | 453 kts | 45° |
| 2026-04-30 03:04 | -29.98467 | 118.21931 | 38485 ft | 453 kts | 45° |
| 2026-04-30 03:05 | -29.94084 | 118.27158 | 38618 ft | 453 kts | 45° |
| 2026-04-30 03:05 | -29.89702 | 118.32380 | 38731 ft | 453 kts | 45° |
| 2026-04-30 03:06 | -29.85316 | 118.37600 | 38833 ft | 453 kts | 45° |
| 2026-04-30 03:06 | -29.80932 | 118.42812 | 38916 ft | 453 kts | 45° |
| 2026-04-30 03:07 | -29.76543 | 118.48021 | 39002 ft | 453 kts | 45° |
| 2026-04-30 03:07 | -29.72153 | 118.53225 | 39002 ft | 453 kts | 45° |
| 2026-04-30 03:08 | -29.67791 | 118.58388 | 38994 ft | 453 kts | 45° |
| 2026-04-30 03:08 | -29.63394 | 118.63587 | 39002 ft | 453 kts | 45° |
| 2026-04-30 03:09 | -29.58999 | 118.68776 | 39002 ft | 453 kts | 45° |
| 2026-04-30 03:09 | -29.54600 | 118.73964 | 38996 ft | 453 kts | 45° |
| 2026-04-30 03:10 | -29.50198 | 118.79148 | 38994 ft | 453 kts | 45° |
| 2026-04-30 03:10 | -29.45793 | 118.84327 | 39001 ft | 453 kts | 45° |
| 2026-04-30 03:11 | -29.41382 | 118.89508 | 39009 ft | 454 kts | 45° |
| 2026-04-30 03:11 | -29.36971 | 118.94684 | 39000 ft | 454 kts | 45° |
| 2026-04-30 03:12 | -29.32550 | 118.99863 | 39006 ft | 454 kts | 45° |
| 2026-04-30 03:12 | -29.28129 | 119.05035 | 39005 ft | 454 kts | 45° |
| 2026-04-30 03:13 | -29.23709 | 119.10201 | 39000 ft | 454 kts | 45° |
| 2026-04-30 03:13 | -29.19289 | 119.15359 | 39007 ft | 454 kts | 45° |
| 2026-04-30 03:14 | -29.14892 | 119.20483 | 39010 ft | 454 kts | 45° |
| 2026-04-30 03:14 | -29.10457 | 119.25645 | 39013 ft | 454 kts | 45° |
| 2026-04-30 03:15 | -29.06030 | 119.30791 | 39013 ft | 454 kts | 45° |
| 2026-04-30 03:15 | -29.01600 | 119.35934 | 39010 ft | 454 kts | 45° |
| 2026-04-30 03:16 | -28.97172 | 119.41068 | 39002 ft | 453 kts | 44° |
| 2026-04-30 03:16 | -28.92765 | 119.46171 | 39004 ft | 453 kts | 44° |
| 2026-04-30 03:17 | -28.88336 | 119.51295 | 38994 ft | 453 kts | 44° |
| 2026-04-30 03:17 | -28.83906 | 119.56412 | 38996 ft | 453 kts | 44° |
| 2026-04-30 03:18 | -28.79477 | 119.61518 | 38995 ft | 453 kts | 44° |
| 2026-04-30 03:18 | -28.75798 | 119.65756 | 38994 ft | 452 kts | 44° |
| 2026-04-30 03:19 | -28.71365 | 119.70857 | 38999 ft | 452 kts | 44° |
| 2026-04-30 03:19 | -28.66933 | 119.75951 | 38993 ft | 452 kts | 44° |
| 2026-04-30 03:20 | -28.62495 | 119.81045 | 38991 ft | 452 kts | 44° |
| 2026-04-30 03:20 | -28.58064 | 119.86124 | 38998 ft | 452 kts | 44° |
| 2026-04-30 03:21 | -28.53622 | 119.91209 | 39000 ft | 453 kts | 44° |
| 2026-04-30 03:21 | -28.49207 | 119.96257 | 38997 ft | 453 kts | 44° |
| 2026-04-30 03:22 | -28.44756 | 120.01340 | 39001 ft | 453 kts | 44° |
| 2026-04-30 03:22 | -28.40303 | 120.06418 | 39002 ft | 453 kts | 44° |
| 2026-04-30 03:23 | -28.35848 | 120.11492 | 39003 ft | 453 kts | 44° |
| 2026-04-30 03:23 | -28.31388 | 120.16566 | 38998 ft | 454 kts | 44° |
| 2026-04-30 03:24 | -28.26955 | 120.21603 | 38998 ft | 454 kts | 44° |
| 2026-04-30 03:24 | -28.22489 | 120.26671 | 39013 ft | 454 kts | 44° |
| 2026-04-30 03:25 | -28.18024 | 120.31731 | 39001 ft | 454 kts | 44° |
| 2026-04-30 03:25 | -28.13553 | 120.36792 | 39009 ft | 454 kts | 44° |
| 2026-04-30 03:26 | -28.09079 | 120.41849 | 39001 ft | 454 kts | 44° |
| 2026-04-30 03:26 | -28.04608 | 120.46898 | 39008 ft | 454 kts | 44° |
| 2026-04-30 03:27 | -28.00137 | 120.51940 | 39005 ft | 454 kts | 44° |
| 2026-04-30 03:27 | -27.95665 | 120.56977 | 39000 ft | 453 kts | 44° |
| 2026-04-30 03:28 | -27.91194 | 120.62006 | 38998 ft | 453 kts | 44° |
| 2026-04-30 03:28 | -27.86725 | 120.67028 | 39001 ft | 453 kts | 44° |
| 2026-04-30 03:29 | -27.81956 | 120.71675 | 38998 ft | 453 kts | 34° |
| 2026-04-30 03:29 | -27.76774 | 120.75631 | 38996 ft | 452 kts | 32° |
| 2026-04-30 03:30 | -27.71541 | 120.79587 | 38992 ft | 452 kts | 33° |
| 2026-04-30 03:30 | -27.66322 | 120.83566 | 38998 ft | 452 kts | 33° |
| 2026-04-30 03:31 | -27.61107 | 120.87554 | 38993 ft | 452 kts | 33° |
| 2026-04-30 03:31 | -27.55928 | 120.91512 | 38995 ft | 453 kts | 33° |
| 2026-04-30 03:32 | -27.50706 | 120.95497 | 39001 ft | 453 kts | 33° |
| 2026-04-30 03:32 | -27.45481 | 120.99478 | 38997 ft | 453 kts | 33° |
| 2026-04-30 03:33 | -27.40254 | 121.03456 | 39004 ft | 454 kts | 33° |
| 2026-04-30 03:33 | -27.35019 | 121.07433 | 39010 ft | 454 kts | 33° |
| 2026-04-30 03:34 | -27.29783 | 121.11406 | 39006 ft | 454 kts | 33° |
| 2026-04-30 03:34 | -27.24537 | 121.15384 | 39004 ft | 455 kts | 33° |
| 2026-04-30 03:35 | -27.19304 | 121.19347 | 38998 ft | 453 kts | 33° |
| 2026-04-30 03:35 | -27.14074 | 121.23303 | 38998 ft | 453 kts | 33° |
| 2026-04-30 03:36 | -27.08842 | 121.27255 | 39002 ft | 453 kts | 33° |
| 2026-04-30 03:36 | -27.03641 | 121.31181 | 38998 ft | 453 kts | 33° |
| 2026-04-30 03:37 | -26.98408 | 121.35124 | 38999 ft | 453 kts | 33° |
| 2026-04-30 03:37 | -26.93161 | 121.39074 | 38999 ft | 453 kts | 33° |
| 2026-04-30 03:38 | -26.87925 | 121.43014 | 39005 ft | 453 kts | 33° |
| 2026-04-30 03:38 | -26.82683 | 121.46954 | 38995 ft | 454 kts | 33° |
| 2026-04-30 03:39 | -26.77439 | 121.50891 | 38998 ft | 454 kts | 33° |
| 2026-04-30 03:39 | -26.72195 | 121.54822 | 39003 ft | 454 kts | 33° |
| 2026-04-30 03:40 | -26.66950 | 121.58750 | 38997 ft | 454 kts | 33° |
| 2026-04-30 03:40 | -26.61700 | 121.62676 | 39004 ft | 454 kts | 33° |
| 2026-04-30 03:41 | -26.56486 | 121.66572 | 39008 ft | 454 kts | 33° |
| 2026-04-30 03:41 | -26.51230 | 121.70494 | 39009 ft | 454 kts | 33° |
| 2026-04-30 03:42 | -26.45980 | 121.74407 | 39004 ft | 454 kts | 33° |
| 2026-04-30 03:42 | -26.40724 | 121.78321 | 39006 ft | 454 kts | 33° |
| 2026-04-30 03:43 | -26.35472 | 121.82227 | 38999 ft | 454 kts | 33° |
| 2026-04-30 03:43 | -26.30217 | 121.86132 | 39000 ft | 454 kts | 33° |
| 2026-04-30 03:44 | -26.24966 | 121.90028 | 38998 ft | 453 kts | 33° |
| 2026-04-30 03:44 | -26.19704 | 121.93929 | 39005 ft | 453 kts | 33° |
| 2026-04-30 03:45 | -26.14488 | 121.97792 | 39006 ft | 453 kts | 33° |
| 2026-04-30 03:45 | -26.09237 | 122.01675 | 39002 ft | 453 kts | 33° |
| 2026-04-30 03:46 | -26.03980 | 122.05559 | 38998 ft | 453 kts | 33° |
| 2026-04-30 03:46 | -25.98725 | 122.09437 | 39000 ft | 453 kts | 33° |
| 2026-04-30 03:47 | -25.93476 | 122.13306 | 38996 ft | 453 kts | 33° |
| 2026-04-30 03:47 | -25.88225 | 122.17173 | 39004 ft | 453 kts | 33° |
| 2026-04-30 03:48 | -25.82973 | 122.21037 | 38998 ft | 453 kts | 33° |
| 2026-04-30 03:48 | -25.77717 | 122.24899 | 38994 ft | 453 kts | 33° |
| 2026-04-30 03:49 | -25.72465 | 122.28754 | 38999 ft | 453 kts | 33° |
| 2026-04-30 03:49 | -25.67213 | 122.32605 | 39002 ft | 453 kts | 33° |
| 2026-04-30 03:50 | -25.61991 | 122.36429 | 38994 ft | 453 kts | 33° |
| 2026-04-30 03:50 | -25.56737 | 122.40274 | 39001 ft | 453 kts | 33° |
| 2026-04-30 03:51 | -25.51476 | 122.44119 | 38996 ft | 453 kts | 33° |
| 2026-04-30 03:51 | -25.46216 | 122.47959 | 38994 ft | 453 kts | 33° |
| 2026-04-30 03:52 | -25.40954 | 122.51797 | 39001 ft | 453 kts | 33° |
| 2026-04-30 03:52 | -25.35688 | 122.55634 | 38998 ft | 453 kts | 33° |
| 2026-04-30 03:53 | -25.30423 | 122.59466 | 39003 ft | 453 kts | 33° |
| 2026-04-30 03:53 | -25.25158 | 122.63293 | 39000 ft | 453 kts | 33° |
| 2026-04-30 03:54 | -25.19884 | 122.67123 | 39000 ft | 453 kts | 33° |
| 2026-04-30 03:54 | -25.14614 | 122.70947 | 38999 ft | 454 kts | 33° |
| 2026-04-30 03:55 | -25.09339 | 122.74770 | 39007 ft | 454 kts | 32° |
| 2026-04-30 03:55 | -25.04094 | 122.78567 | 38998 ft | 454 kts | 32° |
| 2026-04-30 03:56 | -24.98813 | 122.82386 | 39003 ft | 454 kts | 32° |
| 2026-04-30 03:56 | -24.93534 | 122.86200 | 38999 ft | 454 kts | 32° |
| 2026-04-30 03:57 | -24.88254 | 122.90011 | 39005 ft | 454 kts | 32° |
| 2026-04-30 03:57 | -24.82968 | 122.93822 | 39006 ft | 453 kts | 32° |
| 2026-04-30 03:58 | -24.77685 | 122.97626 | 39003 ft | 453 kts | 32° |
| 2026-04-30 03:58 | -24.72440 | 123.01400 | 39006 ft | 453 kts | 32° |
| 2026-04-30 03:59 | -24.67156 | 123.05198 | 39009 ft | 453 kts | 32° |
| 2026-04-30 03:59 | -24.61878 | 123.08988 | 39000 ft | 453 kts | 32° |
| 2026-04-30 04:00 | -24.56597 | 123.12775 | 39002 ft | 453 kts | 32° |
| 2026-04-30 04:00 | -24.51315 | 123.16558 | 39002 ft | 453 kts | 32° |
| 2026-04-30 04:01 | -24.46041 | 123.20334 | 38998 ft | 452 kts | 32° |
| 2026-04-30 04:01 | -24.40765 | 123.24108 | 38997 ft | 452 kts | 32° |
| 2026-04-30 04:02 | -24.35495 | 123.27872 | 38997 ft | 452 kts | 32° |
| 2026-04-30 04:02 | -24.30253 | 123.31610 | 38997 ft | 452 kts | 32° |
| 2026-04-30 04:03 | -24.24982 | 123.35367 | 38995 ft | 452 kts | 32° |
| 2026-04-30 04:03 | -24.19707 | 123.39123 | 38999 ft | 452 kts | 32° |
| 2026-04-30 04:04 | -24.14431 | 123.42876 | 38998 ft | 452 kts | 32° |
| 2026-04-30 04:04 | -24.09153 | 123.46626 | 38999 ft | 452 kts | 32° |
| 2026-04-30 04:05 | -24.03873 | 123.50375 | 38994 ft | 452 kts | 32° |
| 2026-04-30 04:05 | -23.98590 | 123.54122 | 39002 ft | 452 kts | 32° |
| 2026-04-30 04:06 | -23.93306 | 123.57865 | 39006 ft | 453 kts | 32° |
| 2026-04-30 04:06 | -23.88913 | 123.60976 | 38998 ft | 453 kts | 32° |
| 2026-04-30 04:07 | -23.83626 | 123.64715 | 38993 ft | 453 kts | 32° |
| 2026-04-30 04:08 | -23.75686 | 123.70324 | 39001 ft | 453 kts | 32° |
| 2026-04-30 04:08 | -23.70394 | 123.74057 | 39003 ft | 453 kts | 32° |
| 2026-04-30 04:09 | -23.65102 | 123.77787 | 39005 ft | 453 kts | 32° |
| 2026-04-30 04:09 | -23.59810 | 123.81513 | 39005 ft | 453 kts | 32° |
| 2026-04-30 04:10 | -23.54514 | 123.85238 | 39005 ft | 453 kts | 32° |
| 2026-04-30 04:10 | -23.49252 | 123.88936 | 39009 ft | 453 kts | 32° |
| 2026-04-30 04:11 | -23.43956 | 123.92652 | 39008 ft | 453 kts | 32° |
| 2026-04-30 04:11 | -23.38658 | 123.96368 | 39007 ft | 453 kts | 32° |
| 2026-04-30 04:12 | -23.33363 | 124.00078 | 39000 ft | 453 kts | 32° |
| 2026-04-30 04:12 | -23.28066 | 124.03786 | 39007 ft | 452 kts | 32° |
| 2026-04-30 04:13 | -23.22767 | 124.07492 | 38998 ft | 452 kts | 32° |
| 2026-04-30 04:13 | -23.17471 | 124.11192 | 39000 ft | 452 kts | 32° |
| 2026-04-30 04:14 | -23.12179 | 124.14886 | 39003 ft | 452 kts | 32° |
| 2026-04-30 04:14 | -23.06887 | 124.18577 | 38995 ft | 452 kts | 32° |
| 2026-04-30 04:15 | -23.01592 | 124.22266 | 39002 ft | 452 kts | 32° |
| 2026-04-30 04:15 | -22.96298 | 124.25951 | 38998 ft | 452 kts | 32° |
| 2026-04-30 04:16 | -22.91037 | 124.29609 | 39001 ft | 452 kts | 32° |
| 2026-04-30 04:16 | -22.85738 | 124.33289 | 38999 ft | 452 kts | 32° |
| 2026-04-30 04:17 | -22.80441 | 124.36966 | 38999 ft | 452 kts | 32° |
| 2026-04-30 04:17 | -22.75137 | 124.40643 | 38995 ft | 452 kts | 32° |
| 2026-04-30 04:18 | -22.69835 | 124.44316 | 38999 ft | 452 kts | 32° |
| 2026-04-30 04:18 | -22.64533 | 124.47986 | 38991 ft | 452 kts | 32° |
| 2026-04-30 04:19 | -22.59224 | 124.51657 | 39008 ft | 452 kts | 32° |
| 2026-04-30 04:19 | -22.53920 | 124.55321 | 39009 ft | 452 kts | 32° |
| 2026-04-30 04:20 | -22.48652 | 124.58958 | 39005 ft | 452 kts | 32° |
| 2026-04-30 04:20 | -22.43338 | 124.62622 | 39005 ft | 452 kts | 32° |
| 2026-04-30 04:21 | -22.38030 | 124.66278 | 38999 ft | 452 kts | 32° |
| 2026-04-30 04:21 | -22.32724 | 124.69930 | 39007 ft | 452 kts | 32° |
| 2026-04-30 04:22 | -22.27410 | 124.73584 | 39008 ft | 452 kts | 32° |
| 2026-04-30 04:22 | -22.22098 | 124.77234 | 39005 ft | 452 kts | 32° |
| 2026-04-30 04:23 | -22.16791 | 124.80877 | 38999 ft | 452 kts | 32° |
| 2026-04-30 04:23 | -22.11478 | 124.84520 | 38999 ft | 452 kts | 32° |
| 2026-04-30 04:24 | -22.06169 | 124.88157 | 39004 ft | 452 kts | 32° |
| 2026-04-30 04:24 | -22.00857 | 124.91793 | 38995 ft | 452 kts | 32° |
| 2026-04-30 04:25 | -21.95585 | 124.95398 | 38998 ft | 452 kts | 32° |
| 2026-04-30 04:25 | -21.90281 | 124.99021 | 38992 ft | 452 kts | 32° |
| 2026-04-30 04:26 | -21.84972 | 125.02645 | 38993 ft | 452 kts | 32° |
| 2026-04-30 04:26 | -21.79664 | 125.06265 | 38994 ft | 452 kts | 32° |
| 2026-04-30 04:27 | -21.74356 | 125.09883 | 39000 ft | 452 kts | 32° |
| 2026-04-30 04:27 | -21.69049 | 125.13497 | 38994 ft | 452 kts | 32° |
| 2026-04-30 04:28 | -21.63736 | 125.17111 | 38992 ft | 452 kts | 32° |
| 2026-04-30 04:28 | -21.58424 | 125.20721 | 39000 ft | 452 kts | 31° |
| 2026-04-30 04:29 | -21.53110 | 125.24329 | 39002 ft | 452 kts | 31° |
| 2026-04-30 04:29 | -21.47790 | 125.27938 | 39004 ft | 452 kts | 31° |
| 2026-04-30 04:30 | -21.42472 | 125.31543 | 38998 ft | 452 kts | 31° |
| 2026-04-30 04:30 | -21.37148 | 125.35149 | 38999 ft | 452 kts | 31° |
| 2026-04-30 04:31 | -21.31822 | 125.38751 | 39007 ft | 452 kts | 31° |
| 2026-04-30 04:31 | -21.26495 | 125.42352 | 39007 ft | 452 kts | 31° |
| 2026-04-30 04:32 | -21.21169 | 125.45950 | 39001 ft | 452 kts | 31° |
| 2026-04-30 04:32 | -21.15883 | 125.49518 | 39008 ft | 452 kts | 31° |
| 2026-04-30 04:33 | -21.10557 | 125.53111 | 39001 ft | 452 kts | 31° |
| 2026-04-30 04:33 | -21.05231 | 125.56700 | 39004 ft | 452 kts | 31° |
| 2026-04-30 04:34 | -20.99906 | 125.60285 | 39006 ft | 452 kts | 31° |
| 2026-04-30 04:34 | -20.94580 | 125.63867 | 38997 ft | 452 kts | 31° |
| 2026-04-30 04:35 | -20.89259 | 125.67443 | 38999 ft | 452 kts | 31° |
| 2026-04-30 04:35 | -20.83936 | 125.71017 | 39002 ft | 452 kts | 31° |
| 2026-04-30 04:36 | -20.78610 | 125.74591 | 38999 ft | 452 kts | 31° |
| 2026-04-30 04:36 | -20.73286 | 125.78160 | 38996 ft | 452 kts | 31° |
| 2026-04-30 04:37 | -20.67960 | 125.81727 | 38997 ft | 452 kts | 31° |
| 2026-04-30 04:37 | -20.62635 | 125.85291 | 38992 ft | 452 kts | 31° |
| 2026-04-30 04:38 | -20.57312 | 125.88850 | 39001 ft | 452 kts | 31° |
| 2026-04-30 04:38 | -20.51985 | 125.92409 | 39001 ft | 452 kts | 31° |
| 2026-04-30 04:39 | -20.46654 | 125.95968 | 39000 ft | 452 kts | 31° |
| 2026-04-30 04:39 | -20.41354 | 125.99503 | 38997 ft | 452 kts | 31° |
| 2026-04-30 04:40 | -20.36022 | 126.03056 | 39006 ft | 452 kts | 31° |
| 2026-04-30 04:40 | -20.30692 | 126.06605 | 39002 ft | 452 kts | 31° |
| 2026-04-30 04:41 | -20.25362 | 126.10152 | 39005 ft | 452 kts | 31° |
| 2026-04-30 04:41 | -20.20029 | 126.13696 | 39007 ft | 452 kts | 31° |
| 2026-04-30 04:42 | -20.14695 | 126.17238 | 39007 ft | 452 kts | 31° |
| 2026-04-30 04:42 | -20.09363 | 126.20777 | 39001 ft | 452 kts | 31° |
| 2026-04-30 04:43 | -20.04028 | 126.24315 | 39004 ft | 452 kts | 31° |
| 2026-04-30 04:43 | -19.98695 | 126.27849 | 38998 ft | 452 kts | 31° |
| 2026-04-30 04:44 | -19.93363 | 126.31378 | 39005 ft | 451 kts | 31° |
| 2026-04-30 04:44 | -19.88027 | 126.34908 | 39002 ft | 451 kts | 31° |
| 2026-04-30 04:45 | -19.82692 | 126.38435 | 39001 ft | 451 kts | 31° |
| 2026-04-30 04:45 | -19.77356 | 126.41959 | 38996 ft | 451 kts | 31° |
| 2026-04-30 04:46 | -19.72061 | 126.45454 | 38996 ft | 451 kts | 31° |
| 2026-04-30 04:46 | -19.66730 | 126.48969 | 39002 ft | 451 kts | 31° |
| 2026-04-30 04:47 | -19.61396 | 126.52483 | 38996 ft | 451 kts | 31° |
| 2026-04-30 04:47 | -19.56063 | 126.55994 | 39002 ft | 451 kts | 31° |
| 2026-04-30 04:48 | -19.50726 | 126.59505 | 39000 ft | 451 kts | 31° |
| 2026-04-30 04:48 | -19.45389 | 126.63013 | 39001 ft | 451 kts | 31° |
| 2026-04-30 04:49 | -19.40053 | 126.66518 | 38993 ft | 451 kts | 31° |
| 2026-04-30 04:49 | -19.34712 | 126.70023 | 38998 ft | 451 kts | 31° |
| 2026-04-30 04:50 | -19.29372 | 126.73524 | 38996 ft | 451 kts | 31° |
| 2026-04-30 04:50 | -19.24031 | 126.77024 | 38999 ft | 452 kts | 31° |
| 2026-04-30 04:51 | -19.18680 | 126.80527 | 38999 ft | 452 kts | 31° |
| 2026-04-30 04:51 | -19.13329 | 126.84028 | 39004 ft | 452 kts | 31° |
| 2026-04-30 04:52 | -19.08016 | 126.87501 | 38997 ft | 452 kts | 31° |
| 2026-04-30 04:52 | -19.02663 | 126.90997 | 39007 ft | 452 kts | 31° |
| 2026-04-30 04:53 | -18.97311 | 126.94491 | 38997 ft | 452 kts | 31° |
| 2026-04-30 04:53 | -18.92828 | 126.97415 | 38999 ft | 452 kts | 31° |
| 2026-04-30 04:54 | -18.87501 | 127.00887 | 38999 ft | 452 kts | 31° |
| 2026-04-30 04:54 | -18.81240 | 127.04965 | 38997 ft | 452 kts | 31° |
| 2026-04-30 04:55 | -18.76785 | 127.07864 | 39007 ft | 452 kts | 31° |
| 2026-04-30 04:55 | -18.71428 | 127.11348 | 39009 ft | 452 kts | 31° |
| 2026-04-30 04:56 | -18.66067 | 127.14832 | 39008 ft | 452 kts | 31° |
| 2026-04-30 04:56 | -18.60701 | 127.18316 | 39001 ft | 452 kts | 31° |
| 2026-04-30 04:57 | -18.55341 | 127.21794 | 38996 ft | 452 kts | 31° |
| 2026-04-30 04:57 | -18.50015 | 127.25247 | 39005 ft | 452 kts | 31° |
| 2026-04-30 04:58 | -18.44659 | 127.28717 | 39000 ft | 452 kts | 31° |
| 2026-04-30 04:58 | -18.39303 | 127.32185 | 38995 ft | 452 kts | 31° |
| 2026-04-30 04:59 | -18.33932 | 127.35660 | 38995 ft | 452 kts | 31° |
| 2026-04-30 04:59 | -18.28574 | 127.39124 | 38996 ft | 452 kts | 31° |
| 2026-04-30 05:00 | -18.23214 | 127.42587 | 38992 ft | 452 kts | 31° |
| 2026-04-30 05:00 | -18.17852 | 127.46047 | 38991 ft | 452 kts | 31° |
| 2026-04-30 05:01 | -18.12489 | 127.49508 | 38992 ft | 452 kts | 31° |
| 2026-04-30 05:01 | -18.07167 | 127.52940 | 38998 ft | 452 kts | 31° |
| 2026-04-30 05:02 | -18.01563 | 127.55920 | 38997 ft | 452 kts | 25° |
| 2026-04-30 05:02 | -17.95902 | 127.58787 | 38997 ft | 452 kts | 26° |
| 2026-04-30 05:03 | -17.90260 | 127.61711 | 38995 ft | 452 kts | 26° |
| 2026-04-30 05:03 | -17.84623 | 127.64649 | 38998 ft | 452 kts | 26° |
| 2026-04-30 05:04 | -17.78976 | 127.67591 | 38998 ft | 453 kts | 26° |
| 2026-04-30 05:04 | -17.73357 | 127.70514 | 39000 ft | 453 kts | 26° |
| 2026-04-30 05:05 | -17.67708 | 127.73448 | 39002 ft | 453 kts | 26° |
| 2026-04-30 05:05 | -17.62057 | 127.76381 | 39006 ft | 453 kts | 27° |
| 2026-04-30 05:06 | -17.53575 | 127.80777 | 39001 ft | 453 kts | 27° |
| 2026-04-30 05:06 | -17.47926 | 127.83703 | 39000 ft | 452 kts | 27° |
| 2026-04-30 05:07 | -17.42292 | 127.86618 | 39000 ft | 452 kts | 27° |
| 2026-04-30 05:07 | -17.36643 | 127.89539 | 38998 ft | 452 kts | 27° |
| 2026-04-30 05:08 | -17.30996 | 127.92455 | 39004 ft | 453 kts | 27° |
| 2026-04-30 05:08 | -17.25337 | 127.95374 | 39001 ft | 453 kts | 27° |
| 2026-04-30 05:09 | -17.19685 | 127.98288 | 39000 ft | 453 kts | 27° |
| 2026-04-30 05:09 | -17.14060 | 128.01185 | 38997 ft | 453 kts | 27° |
| 2026-04-30 05:10 | -17.08396 | 128.04100 | 39009 ft | 453 kts | 27° |
| 2026-04-30 05:10 | -17.02737 | 128.07011 | 39003 ft | 452 kts | 27° |
| 2026-04-30 05:11 | -16.97103 | 128.09905 | 39000 ft | 451 kts | 27° |
| 2026-04-30 05:11 | -16.91458 | 128.12804 | 39004 ft | 452 kts | 27° |
| 2026-04-30 05:12 | -16.85824 | 128.15695 | 38997 ft | 451 kts | 27° |
| 2026-04-30 05:12 | -16.80183 | 128.18587 | 39004 ft | 451 kts | 27° |
| 2026-04-30 05:13 | -16.74551 | 128.21473 | 38997 ft | 450 kts | 27° |
| 2026-04-30 05:13 | -16.68928 | 128.24352 | 38993 ft | 450 kts | 27° |
| 2026-04-30 05:14 | -16.63309 | 128.27227 | 38982 ft | 450 kts | 27° |
| 2026-04-30 05:14 | -16.57697 | 128.30096 | 38974 ft | 449 kts | 27° |
| 2026-04-30 05:15 | -16.52117 | 128.32947 | 38981 ft | 449 kts | 27° |
| 2026-04-30 05:15 | -16.46511 | 128.35809 | 38979 ft | 449 kts | 27° |
| 2026-04-30 05:16 | -16.40892 | 128.38677 | 38984 ft | 449 kts | 27° |
| 2026-04-30 05:16 | -16.35269 | 128.41544 | 38984 ft | 450 kts | 27° |
| 2026-04-30 05:17 | -16.29640 | 128.44412 | 38984 ft | 450 kts | 27° |
| 2026-04-30 05:17 | -16.24012 | 128.47278 | 38991 ft | 451 kts | 27° |
| 2026-04-30 05:18 | -16.18361 | 128.50153 | 38997 ft | 452 kts | 27° |
| 2026-04-30 05:18 | -16.12714 | 128.53025 | 38997 ft | 452 kts | 27° |
| 2026-04-30 05:19 | -16.07092 | 128.55883 | 38999 ft | 452 kts | 27° |
| 2026-04-30 05:19 | -16.01460 | 128.58743 | 39001 ft | 450 kts | 27° |
| 2026-04-30 05:20 | -15.95825 | 128.61605 | 38995 ft | 452 kts | 27° |
| 2026-04-30 05:20 | -15.90169 | 128.64475 | 39000 ft | 451 kts | 27° |
| 2026-04-30 05:21 | -15.84528 | 128.67335 | 38999 ft | 450 kts | 27° |
| 2026-04-30 05:21 | -15.78900 | 128.70189 | 38998 ft | 449 kts | 28° |
| 2026-04-30 05:22 | -15.73583 | 128.73508 | 38992 ft | 448 kts | 34° |
| 2026-04-30 05:22 | -15.68367 | 128.77053 | 38985 ft | 448 kts | 34° |
| 2026-04-30 05:23 | -15.63141 | 128.80559 | 38982 ft | 447 kts | 33° |
| 2026-04-30 05:23 | -15.57897 | 128.84049 | 38979 ft | 447 kts | 33° |
| 2026-04-30 05:24 | -15.52661 | 128.87527 | 38980 ft | 447 kts | 33° |
| 2026-04-30 05:24 | -15.47417 | 128.91009 | 38983 ft | 447 kts | 33° |
| 2026-04-30 05:25 | -15.42174 | 128.94490 | 38987 ft | 448 kts | 33° |
| 2026-04-30 05:25 | -15.36915 | 128.97979 | 38986 ft | 449 kts | 33° |
| 2026-04-30 05:26 | -15.31648 | 129.01470 | 38995 ft | 450 kts | 33° |
| 2026-04-30 05:26 | -15.26406 | 129.04946 | 39000 ft | 450 kts | 33° |
| 2026-04-30 05:27 | -15.21123 | 129.08449 | 39006 ft | 451 kts | 33° |
| 2026-04-30 05:27 | -15.15836 | 129.11952 | 39000 ft | 450 kts | 33° |
| 2026-04-30 05:28 | -15.10569 | 129.15440 | 39004 ft | 449 kts | 33° |
| 2026-04-30 05:28 | -15.05296 | 129.18929 | 38999 ft | 450 kts | 33° |
| 2026-04-30 05:29 | -15.00021 | 129.22418 | 39004 ft | 450 kts | 33° |
| 2026-04-30 05:29 | -14.94752 | 129.25902 | 38997 ft | 450 kts | 33° |
| 2026-04-30 05:30 | -14.89479 | 129.29386 | 39005 ft | 450 kts | 33° |
| 2026-04-30 05:30 | -14.84232 | 129.32851 | 39006 ft | 450 kts | 33° |
| 2026-04-30 05:31 | -14.78958 | 129.36332 | 39000 ft | 450 kts | 33° |
| 2026-04-30 05:31 | -14.73683 | 129.39812 | 39001 ft | 450 kts | 33° |
| 2026-04-30 05:32 | -14.68405 | 129.43292 | 39007 ft | 450 kts | 32° |
| 2026-04-30 05:32 | -14.63129 | 129.46769 | 39007 ft | 450 kts | 32° |
| 2026-04-30 05:33 | -14.57850 | 129.50245 | 39006 ft | 450 kts | 32° |
| 2026-04-30 05:33 | -14.52572 | 129.53719 | 39003 ft | 450 kts | 32° |
| 2026-04-30 05:34 | -14.47295 | 129.57191 | 39000 ft | 450 kts | 32° |
| 2026-04-30 05:34 | -14.42013 | 129.60664 | 39002 ft | 450 kts | 32° |
| 2026-04-30 05:35 | -14.36763 | 129.64114 | 38999 ft | 450 kts | 32° |
| 2026-04-30 05:35 | -14.31476 | 129.67587 | 38791 ft | 450 kts | 32° |
| 2026-04-30 05:36 | -14.28830 | 129.69324 | 38542 ft | 449 kts | 32° |
| 2026-04-30 05:36 | -14.26199 | 129.71050 | 38294 ft | 448 kts | 32° |
| 2026-04-30 05:36 | -14.23566 | 129.72778 | 38045 ft | 448 kts | 32° |
| 2026-04-30 05:36 | -14.20933 | 129.74505 | 37797 ft | 448 kts | 32° |
| 2026-04-30 05:37 | -14.18299 | 129.76233 | 37548 ft | 448 kts | 32° |
| 2026-04-30 05:37 | -14.15668 | 129.77958 | 37300 ft | 448 kts | 32° |
| 2026-04-30 05:37 | -14.13037 | 129.79682 | 37051 ft | 448 kts | 32° |
| 2026-04-30 05:37 | -14.10405 | 129.81407 | 36801 ft | 448 kts | 32° |
| 2026-04-30 05:38 | -14.07773 | 129.83132 | 36551 ft | 448 kts | 32° |
| 2026-04-30 05:38 | -14.05179 | 129.84831 | 36308 ft | 448 kts | 32° |
| 2026-04-30 05:38 | -14.02546 | 129.86555 | 36060 ft | 448 kts | 32° |
| 2026-04-30 05:38 | -13.99915 | 129.88277 | 35812 ft | 449 kts | 32° |
| 2026-04-30 05:39 | -13.97240 | 129.90028 | 35559 ft | 449 kts | 32° |
| 2026-04-30 05:39 | -13.94640 | 129.91729 | 35314 ft | 450 kts | 32° |
| 2026-04-30 05:39 | -13.91960 | 129.93482 | 35061 ft | 450 kts | 32° |
| 2026-04-30 05:39 | -13.89354 | 129.95186 | 34802 ft | 451 kts | 32° |
| 2026-04-30 05:40 | -13.86698 | 129.96922 | 34235 ft | 454 kts | 32° |
| 2026-04-30 05:40 | -13.84020 | 129.98673 | 33384 ft | 458 kts | 32° |
| 2026-04-30 05:40 | -13.81325 | 130.00433 | 32614 ft | 459 kts | 32° |
| 2026-04-30 05:40 | -13.78631 | 130.02193 | 31843 ft | 459 kts | 32° |
| 2026-04-30 05:41 | -13.75938 | 130.03952 | 31131 ft | 457 kts | 32° |
| 2026-04-30 05:41 | -13.73271 | 130.05693 | 30626 ft | 450 kts | 32° |
| 2026-04-30 05:41 | -13.70637 | 130.07412 | 30072 ft | 445 kts | 32° |
| 2026-04-30 05:41 | -13.68040 | 130.09106 | 29523 ft | 440 kts | 32° |
| 2026-04-30 05:42 | -13.66331 | 130.10221 | 29163 ft | 437 kts | 32° |
| 2026-04-30 05:42 | -13.63783 | 130.11883 | 28625 ft | 432 kts | 32° |
| 2026-04-30 05:42 | -13.61261 | 130.13527 | 28087 ft | 427 kts | 32° |
| 2026-04-30 05:42 | -13.58763 | 130.15156 | 27554 ft | 422 kts | 32° |
| 2026-04-30 05:43 | -13.56295 | 130.16765 | 27026 ft | 418 kts | 32° |
| 2026-04-30 05:43 | -13.53854 | 130.18356 | 26499 ft | 413 kts | 32° |
| 2026-04-30 05:43 | -13.51436 | 130.19930 | 25973 ft | 409 kts | 32° |
| 2026-04-30 05:43 | -13.48276 | 130.21987 | 25290 ft | 404 kts | 32° |
| 2026-04-30 05:44 | -13.46682 | 130.23024 | 24934 ft | 401 kts | 32° |
| 2026-04-30 05:44 | -13.44336 | 130.24551 | 24418 ft | 397 kts | 32° |
| 2026-04-30 05:44 | -13.42014 | 130.26062 | 23905 ft | 393 kts | 32° |
| 2026-04-30 05:44 | -13.39714 | 130.27557 | 23389 ft | 389 kts | 32° |
| 2026-04-30 05:45 | -13.37436 | 130.29039 | 22876 ft | 386 kts | 32° |
| 2026-04-30 05:45 | -13.35210 | 130.30486 | 22375 ft | 382 kts | 32° |
| 2026-04-30 05:45 | -13.32971 | 130.31941 | 21854 ft | 379 kts | 32° |
| 2026-04-30 05:45 | -13.30756 | 130.33381 | 21358 ft | 375 kts | 32° |
| 2026-04-30 05:46 | -13.28557 | 130.34810 | 20855 ft | 372 kts | 32° |
| 2026-04-30 05:46 | -13.26376 | 130.36226 | 20348 ft | 369 kts | 32° |
| 2026-04-30 05:46 | -13.24208 | 130.37634 | 19847 ft | 366 kts | 32° |
| 2026-04-30 05:46 | -13.22064 | 130.39027 | 19348 ft | 363 kts | 32° |
| 2026-04-30 05:47 | -13.19934 | 130.40409 | 18847 ft | 361 kts | 32° |
| 2026-04-30 05:47 | -13.17823 | 130.41780 | 18349 ft | 358 kts | 32° |
| 2026-04-30 05:47 | -13.15724 | 130.43141 | 17855 ft | 355 kts | 32° |
| 2026-04-30 05:47 | -13.13639 | 130.44494 | 17359 ft | 353 kts | 32° |
| 2026-04-30 05:48 | -13.11570 | 130.45837 | 16865 ft | 351 kts | 32° |
| 2026-04-30 05:48 | -13.09515 | 130.47169 | 16378 ft | 348 kts | 32° |
| 2026-04-30 05:48 | -13.07474 | 130.48492 | 15891 ft | 346 kts | 32° |
| 2026-04-30 05:48 | -13.05448 | 130.49805 | 15412 ft | 343 kts | 32° |
| 2026-04-30 05:49 | -13.03462 | 130.51093 | 14935 ft | 341 kts | 32° |
| 2026-04-30 05:49 | -13.01435 | 130.52406 | 14450 ft | 339 kts | 32° |
| 2026-04-30 05:49 | -12.99452 | 130.53690 | 13975 ft | 336 kts | 32° |
| 2026-04-30 05:49 | -12.97484 | 130.54965 | 13508 ft | 334 kts | 32° |
| 2026-04-30 05:50 | -12.95551 | 130.56217 | 13039 ft | 331 kts | 32° |
| 2026-04-30 05:50 | -12.93607 | 130.57475 | 12578 ft | 329 kts | 32° |
| 2026-04-30 05:50 | -12.91679 | 130.58723 | 12116 ft | 327 kts | 32° |
| 2026-04-30 05:50 | -12.89762 | 130.59964 | 11652 ft | 325 kts | 32° |
| 2026-04-30 05:51 | -12.87859 | 130.61196 | 11192 ft | 322 kts | 32° |
| 2026-04-30 05:51 | -12.85970 | 130.62418 | 10736 ft | 320 kts | 32° |
| 2026-04-30 05:51 | -12.84086 | 130.63637 | 10191 ft | 321 kts | 32° |
| 2026-04-30 05:51 | -12.82232 | 130.64836 | 10032 ft | 308 kts | 32° |
| 2026-04-30 05:52 | -12.80456 | 130.65985 | 9870 ft | 296 kts | 32° |
| 2026-04-30 05:52 | -12.78726 | 130.67104 | 9546 ft | 292 kts | 32° |
| 2026-04-30 05:52 | -12.77037 | 130.68195 | 9402 ft | 285 kts | 32° |
| 2026-04-30 05:52 | -12.75346 | 130.69288 | 9238 ft | 290 kts | 32° |
| 2026-04-30 05:53 | -12.73641 | 130.70390 | 9076 ft | 285 kts | 32° |
| 2026-04-30 05:53 | -12.71968 | 130.71471 | 9087 ft | 286 kts | 32° |
| 2026-04-30 05:53 | -12.70283 | 130.72560 | 9092 ft | 287 kts | 32° |
| 2026-04-30 05:53 | -12.68595 | 130.73651 | 9088 ft | 286 kts | 32° |
| 2026-04-30 05:54 | -12.66909 | 130.74739 | 9091 ft | 286 kts | 32° |
| 2026-04-30 05:54 | -12.65206 | 130.75800 | 9086 ft | 286 kts | 24° |
| 2026-04-30 05:54 | -12.63288 | 130.76256 | 9090 ft | 285 kts | 358° |
| 2026-04-30 05:54 | -12.61394 | 130.75818 | 9088 ft | 284 kts | 333° |
| 2026-04-30 05:55 | -12.59667 | 130.74834 | 9086 ft | 285 kts | 328° |
| 2026-04-30 05:55 | -12.57983 | 130.73761 | 9088 ft | 284 kts | 328° |
| 2026-04-30 05:55 | -12.56306 | 130.72692 | 9089 ft | 284 kts | 328° |
| 2026-04-30 05:55 | -12.54610 | 130.71643 | 9088 ft | 284 kts | 329° |
| 2026-04-30 05:56 | -12.52905 | 130.70621 | 9088 ft | 284 kts | 330° |
| 2026-04-30 05:56 | -12.51199 | 130.69617 | 8936 ft | 282 kts | 330° |
| 2026-04-30 05:56 | -12.49495 | 130.68623 | 8599 ft | 281 kts | 330° |
| 2026-04-30 05:56 | -12.47799 | 130.67637 | 8220 ft | 280 kts | 330° |
| 2026-04-30 05:57 | -12.46110 | 130.66656 | 7826 ft | 279 kts | 330° |
| 2026-04-30 05:57 | -12.44424 | 130.65676 | 7439 ft | 277 kts | 330° |
| 2026-04-30 05:57 | -12.42653 | 130.64948 | 7043 ft | 276 kts | 352° |
| 2026-04-30 05:57 | -12.40756 | 130.65083 | 6631 ft | 275 kts | 18° |
| 2026-04-30 05:58 | -12.38992 | 130.65733 | 6496 ft | 263 kts | 20° |
| 2026-04-30 05:58 | -12.37312 | 130.66377 | 6345 ft | 254 kts | 25° |
| 2026-04-30 05:58 | -12.35946 | 130.67457 | 5874 ft | 250 kts | 54° |
| 2026-04-30 05:58 | -12.35288 | 130.69078 | 5256 ft | 250 kts | 85° |
| 2026-04-30 05:59 | -12.35536 | 130.70772 | 4979 ft | 235 kts | 111° |
| 2026-04-30 05:59 | -12.36106 | 130.72276 | 4829 ft | 219 kts | 112° |
| 2026-04-30 05:59 | -12.36637 | 130.73662 | 4768 ft | 198 kts | 111° |
| 2026-04-30 05:59 | -12.37095 | 130.74923 | 4639 ft | 180 kts | 110° |
| 2026-04-30 06:00 | -12.37497 | 130.76088 | 4335 ft | 172 kts | 109° |
| 2026-04-30 06:00 | -12.37893 | 130.77272 | 3685 ft | 184 kts | 108° |
| 2026-04-30 06:00 | -12.38307 | 130.78518 | 3250 ft | 181 kts | 108° |
| 2026-04-30 06:00 | -12.38704 | 130.79694 | 2942 ft | 171 kts | 109° |
| 2026-04-30 06:01 | -12.39097 | 130.80860 | 2353 ft | 177 kts | 108° |
| 2026-04-30 06:01 | -12.39494 | 130.82091 | 1673 ft | 185 kts | 107° |
| 2026-04-30 06:01 | -12.39887 | 130.83358 | 965 ft | 189 kts | 107° |
| 2026-04-30 06:01 | -12.40263 | 130.84610 | 564 ft | 177 kts | 107° |
| 2026-04-30 06:02 | -12.40640 | 130.85748 | 306 ft | 161 kts | 109° |
| 2026-04-30 06:02 | -12.41011 | 130.86748 | 187 ft | 142 kts | 109° |
| 2026-04-30 06:02 | -12.41312 | 130.87667 | 101 ft | 120 kts | 108° |
| 2026-04-30 06:02 | -12.41431 | 130.88029 | 96 ft | 21 kts | 109° |
| 2026-04-30 06:03 | -12.41485 | 130.88188 | 94 ft | 26 kts | 109° |
| 2026-04-30 06:03 | -12.41549 | 130.88365 | 92 ft | 26 kts | 119° |
| 2026-04-30 06:03 | -12.41687 | 130.88430 | 92 ft | 16 kts | 193° |
| 2026-04-30 06:03 | -12.41695 | 130.88428 | 92 ft | 1 kts | 196° |
| 2026-04-30 06:04 | -12.41714 | 130.88422 | 92 ft | 5 kts | 198° |
| 2026-04-30 06:04 | -12.41722 | 130.88419 | 92 ft | 0 kts | 200° |
| 2026-04-30 06:05 | -12.41735 | 130.88414 | 92 ft | 4 kts | 200° |
| 2026-04-30 06:05 | -12.41770 | 130.88400 | 93 ft | 7 kts | 207° |
| 2026-04-30 06:05 | -12.41813 | 130.88337 | 96 ft | 15 kts | 256° |
| 2026-04-30 06:06 | -12.41791 | 130.88214 | 96 ft | 20 kts | 290° |
| 2026-04-30 06:06 | -12.41743 | 130.88068 | 97 ft | 22 kts | 288° |
| 2026-04-30 06:06 | -12.41692 | 130.87914 | 98 ft | 24 kts | 289° |
| 2026-04-30 06:06 | -12.41637 | 130.87752 | 101 ft | 24 kts | 289° |
| 2026-04-30 06:07 | -12.41580 | 130.87592 | 106 ft | 24 kts | 289° |
| 2026-04-30 06:07 | -12.41511 | 130.87463 | 105 ft | 21 kts | 326° |
| 2026-04-30 06:07 | -12.41397 | 130.87461 | 104 ft | 8 kts | 18° |
| 2026-04-30 06:07 | -12.41392 | 130.87463 | 104 ft | 0 kts | 18° |
| 2026-04-30 06:08 | -12.41379 | 130.87467 | 103 ft | 5 kts | 18° |
| 2026-04-30 06:08 | -12.41313 | 130.87490 | 102 ft | 15 kts | 18° |
| 2026-04-30 06:08 | -12.41200 | 130.87530 | 101 ft | 19 kts | 20° |
| 2026-04-30 06:09 | -12.41065 | 130.87579 | 98 ft | 22 kts | 19° |
| 2026-04-30 06:09 | -12.40958 | 130.87683 | 93 ft | 20 kts | 81° |
| 2026-04-30 06:09 | -12.40971 | 130.87790 | 97 ft | 11 kts | 98° |
| 2026-04-30 06:09 | -12.40927 | 130.87832 | 94 ft | 8 kts | 10° |
| 2026-04-30 06:10 | -12.40912 | 130.87835 | 96 ft | 0 kts | 10° |
| 2026-04-30 06:10 | -12.40903 | 130.87836 | 93 ft | 0 kts | 9° |
| 2026-04-30 06:10 | -12.40907 | 130.87835 | 93 ft | 0 kts | 9° |
| 2026-04-30 06:10 | -12.40913 | 130.87834 | 96 ft | 0 kts | 9° |
| 2026-04-30 06:11 | -12.40914 | 130.87834 | 96 ft | 0 kts | 9° |